Time;durP1;ratioP1;P1;durP2;ratioP2;P2;SDS_P1;SDS_P2;PMS_P1;PMS_P2;Temp;Humidity;BMP_temperature;BMP_pressure;BME280_temperature;BME280_humidity;BME280_pressure;Samples;Min_cycle;Max_cycle;Signal;HPM_P1;HPM_P2
2022/07/27 00:01:17;;;;;;;2.83;0.80;;;16.70;99.90;;;;;;5010524;28;20211;-53
2022/07/27 00:03:45;;;;;;;4.77;1.23;;;16.70;99.90;;;;;;5011898;28;20284;-55
2022/07/27 00:06:13;;;;;;;4.70;0.90;;;16.70;99.90;;;;;;5013999;28;20677;-54
2022/07/27 00:08:40;;;;;;;2.57;0.87;;;16.60;99.90;;;;;;5012318;28;20212;-52
2022/07/27 00:11:08;;;;;;;4.23;1.20;;;16.50;99.90;;;;;;5019594;28;20219;-54
2022/07/27 00:13:35;;;;;;;1.40;0.90;;;16.60;99.90;;;;;;5007592;28;20661;-53
2022/07/27 00:16:02;;;;;;;1.80;0.93;;;16.60;99.90;;;;;;5014232;28;21199;-52
2022/07/27 00:18:29;;;;;;;3.17;1.10;;;16.50;99.90;;;;;;5010178;28;20673;-53
2022/07/27 00:20:56;;;;;;;4.33;1.10;;;16.40;99.90;;;;;;5013478;28;20212;-52
2022/07/27 00:23:23;;;;;;;4.37;0.83;;;16.40;99.90;;;;;;5014263;28;20244;-53
2022/07/27 00:25:50;;;;;;;2.30;1.30;;;16.50;99.90;;;;;;5013634;28;20683;-53
2022/07/27 00:28:18;;;;;;;2.90;1.20;;;16.50;99.90;;;;;;5014428;28;20228;-53
2022/07/27 00:30:45;;;;;;;3.43;1.30;;;16.50;99.90;;;;;;5016688;28;20266;-56
2022/07/27 00:33:12;;;;;;;4.97;1.87;;;16.50;99.90;;;;;;5019676;28;20621;-54
2022/07/27 00:35:44;;;;;;;3.53;1.50;;;16.40;99.90;;;;;;5016001;28;20220;-53
2022/07/27 00:38:15;;;;;;;6.43;1.57;;;16.30;99.90;;;;;;5018712;28;20205;-54
2022/07/27 00:40:42;;;;;;;5.87;1.80;;;16.20;99.90;;;;;;5018382;28;20201;-54
2022/07/27 00:43:09;;;;;;;5.03;2.17;;;16.30;99.90;;;;;;5020044;28;20205;-54
2022/07/27 00:45:36;;;;;;;3.37;1.23;;;16.30;99.90;;;;;;5015564;28;20813;-53
2022/07/27 00:48:03;;;;;;;5.63;1.37;;;16.30;99.90;;;;;;5020854;28;20645;-54
2022/07/27 00:50:30;;;;;;;2.70;1.10;;;16.30;99.90;;;;;;5018025;28;20236;-53
2022/07/27 00:52:58;;;;;;;3.73;1.47;;;16.40;99.90;;;;;;5020625;28;20569;-53
2022/07/27 00:55:26;;;;;;;7.93;1.20;;;16.20;99.90;;;;;;5014392;28;20247;-55
2022/07/27 00:57:53;;;;;;;2.93;1.03;;;16.30;99.90;;;;;;5018348;28;20292;-53
2022/07/27 01:00:27;;;;;;;2.23;1.00;;;16.30;99.90;;;;;;5018108;28;20835;-54
2022/07/27 01:02:54;;;;;;;5.93;3.43;;;16.30;99.90;;;;;;5017978;28;20616;-54
2022/07/27 01:05:26;;;;;;;2.23;0.90;;;16.30;99.90;;;;;;5017871;28;20290;-53
2022/07/27 01:08:05;;;;;;;4.77;1.63;;;16.20;99.90;;;;;;5017188;28;20609;-53
2022/07/27 01:10:33;;;;;;;3.90;1.20;;;16.10;99.90;;;;;;5017432;28;20214;-54
2022/07/27 01:13:01;;;;;;;2.83;1.23;;;16.00;99.90;;;;;;5033554;28;20235;-53
2022/07/27 01:15:39;;;;;;;5.17;1.33;;;16.00;99.90;;;;;;5019649;28;20721;-52
2022/07/27 01:18:33;;;;;;;2.23;1.73;;;16.10;99.90;;;;;;5013828;28;20197;-53
2022/07/27 01:21:02;;;;;;;1.70;1.10;;;16.00;99.90;;;;;;5015536;28;20205;-54
2022/07/27 01:23:31;;;;;;;4.17;1.13;;;16.00;99.90;;;;;;5014945;28;20206;-54
2022/07/27 01:26:02;;;;;;;4.47;1.10;;;16.10;99.90;;;;;;5014434;28;20204;-53
2022/07/27 01:28:32;;;;;;;4.77;1.40;;;16.00;99.90;;;;;;5013669;28;20318;-53
2022/07/27 01:31:02;;;;;;;6.40;1.50;;;16.10;99.90;;;;;;5014922;28;20231;-52
2022/07/27 01:33:29;;;;;;;2.43;1.13;;;16.10;99.90;;;;;;5016571;28;20205;-54
2022/07/27 01:35:56;;;;;;;2.73;1.10;;;16.10;99.90;;;;;;5011332;28;20221;-54
2022/07/27 01:38:24;;;;;;;3.43;1.47;;;16.00;99.90;;;;;;5012156;28;20220;-53
2022/07/27 01:40:52;;;;;;;3.97;1.10;;;16.00;99.90;;;;;;5011913;28;20204;-53
2022/07/27 01:43:23;;;;;;;3.77;1.23;;;16.00;99.90;;;;;;5018821;28;20204;-53
2022/07/27 01:45:53;;;;;;;5.40;1.00;;;16.10;99.90;;;;;;5017154;28;20264;-52
2022/07/27 01:48:21;;;;;;;2.87;1.23;;;16.10;99.90;;;;;;5016541;28;20262;-53
2022/07/27 01:50:49;;;;;;;1.83;1.20;;;16.10;99.90;;;;;;5016924;28;20197;-53
2022/07/27 01:53:17;;;;;;;4.93;1.20;;;16.10;99.90;;;;;;5016371;28;20197;-54
2022/07/27 01:55:45;;;;;;;2.50;1.20;;;16.10;99.90;;;;;;5018497;28;20229;-53
2022/07/27 01:58:12;;;;;;;4.40;1.27;;;16.00;99.90;;;;;;5013907;28;20208;-52
2022/07/27 02:00:40;;;;;;;4.10;1.47;;;16.10;99.90;;;;;;5015287;28;20228;-53
2022/07/27 02:03:09;;;;;;;3.50;1.10;;;15.90;99.90;;;;;;5013478;28;20290;-54
2022/07/27 02:05:40;;;;;;;3.90;0.93;;;16.00;99.90;;;;;;5015901;28;20225;-54
2022/07/27 02:08:10;;;;;;;5.80;1.50;;;16.00;99.90;;;;;;5014768;28;21600;-53
2022/07/27 02:12:34;;;;;;;4.87;1.27;;;15.90;99.90;;;;;;5017605;28;20292;-53
2022/07/27 02:13:27;;;;;;;3.27;1.10;;;15.80;99.90;;;;;;5014494;28;20208;-53
2022/07/27 02:15:55;;;;;;;3.73;1.30;;;15.90;99.90;;;;;;5016942;28;20301;-53
2022/07/27 02:18:23;;;;;;;3.70;1.33;;;15.90;99.90;;;;;;5012095;28;20595;-53
2022/07/27 02:21:09;;;;;;;2.07;1.00;;;15.80;99.90;;;;;;5014778;28;20194;-53
2022/07/27 02:23:37;;;;;;;2.97;1.10;;;15.90;99.90;;;;;;5008728;28;20216;-53
2022/07/27 02:26:06;;;;;;;6.80;1.10;;;15.90;99.90;;;;;;5011907;28;20543;-53
2022/07/27 02:28:37;;;;;;;3.10;1.23;;;15.90;99.90;;;;;;5014454;28;20267;-53
2022/07/27 02:31:07;;;;;;;1.83;0.90;;;16.00;99.90;;;;;;5015044;28;20247;-53
2022/07/27 02:33:36;;;;;;;3.40;0.90;;;15.80;99.90;;;;;;5013727;28;20610;-53
2022/07/27 02:36:04;;;;;;;2.77;1.23;;;15.80;99.90;;;;;;5016368;28;20803;-53
2022/07/27 02:38:31;;;;;;;1.93;1.00;;;15.80;99.90;;;;;;5013377;28;20205;-53
2022/07/27 02:40:58;;;;;;;5.10;1.00;;;15.60;99.90;;;;;;4998622;28;20250;-53
2022/07/27 02:43:28;;;;;;;2.30;1.23;;;15.60;99.90;;;;;;5015072;28;20220;-54
2022/07/27 02:45:55;;;;;;;4.73;1.30;;;15.60;99.90;;;;;;5016947;28;20235;-54
2022/07/27 02:48:22;;;;;;;5.03;1.57;;;15.70;99.90;;;;;;5014095;28;21165;-53
2022/07/27 02:50:49;;;;;;;3.27;1.20;;;15.60;99.90;;;;;;5015464;28;20658;-53
2022/07/27 02:53:16;;;;;;;5.07;1.10;;;15.70;99.90;;;;;;5015715;28;20230;-53
2022/07/27 02:55:45;;;;;;;1.10;1.00;;;15.70;99.90;;;;;;5012634;28;20275;-54
2022/07/27 02:58:16;;;;;;;2.77;1.30;;;15.70;99.90;;;;;;5013960;28;20307;-54
2022/07/27 03:00:43;;;;;;;5.53;1.40;;;15.60;99.90;;;;;;5015049;28;20204;-54
2022/07/27 03:03:11;;;;;;;2.13;1.40;;;15.60;99.90;;;;;;5016665;28;20201;-54
2022/07/27 03:05:38;;;;;;;2.33;1.30;;;15.70;99.90;;;;;;5014615;28;20301;-54
2022/07/27 03:08:08;;;;;;;3.70;1.33;;;15.60;99.90;;;;;;5014942;28;20658;-54
2022/07/27 03:10:36;;;;;;;5.17;1.43;;;15.60;99.90;;;;;;5011858;28;20209;-50
2022/07/27 03:13:03;;;;;;;4.47;1.20;;;15.50;99.90;;;;;;5012842;28;20303;-54
2022/07/27 03:15:33;;;;;;;2.93;1.60;;;15.60;99.90;;;;;;5010558;28;20271;-52
2022/07/27 03:18:00;;;;;;;2.57;1.17;;;15.70;99.90;;;;;;5013724;28;20644;-54
2022/07/27 03:20:27;;;;;;;3.23;1.40;;;15.70;99.90;;;;;;5014962;28;20424;-54
2022/07/27 03:22:57;;;;;;;3.47;1.40;;;15.60;99.90;;;;;;5011735;28;20216;-53
2022/07/27 03:25:30;;;;;;;3.30;1.20;;;15.60;99.90;;;;;;5010764;28;20212;-53
2022/07/27 03:27:57;;;;;;;2.87;1.40;;;15.40;99.90;;;;;;5025843;28;20227;-54
2022/07/27 03:30:29;;;;;;;2.33;1.23;;;15.30;99.90;;;;;;5013694;28;20298;-53
2022/07/27 03:32:56;;;;;;;3.93;1.43;;;15.30;99.90;;;;;;5015122;28;20637;-53
2022/07/27 03:35:23;;;;;;;5.87;2.33;;;15.20;99.90;;;;;;4999788;28;20257;-54
2022/07/27 03:37:54;;;;;;;2.40;1.40;;;14.90;99.90;;;;;;5013355;28;20726;-53
2022/07/27 03:40:21;;;;;;;2.17;1.50;;;14.80;99.90;;;;;;5014649;28;20652;-53
2022/07/27 03:42:48;;;;;;;2.27;1.43;;;14.60;99.90;;;;;;5012104;28;20208;-54
2022/07/27 03:45:15;;;;;;;3.10;1.80;;;14.40;99.90;;;;;;5011875;28;20296;-54
2022/07/27 03:47:42;;;;;;;4.83;1.67;;;14.60;99.90;;;;;;5010783;28;20201;-54
2022/07/27 03:50:09;;;;;;;4.70;1.20;;;14.60;99.90;;;;;;5015006;28;20210;-53
2022/07/27 03:52:36;;;;;;;1.57;1.07;;;14.50;99.90;;;;;;5016380;28;20906;-53
2022/07/27 03:55:07;;;;;;;1.97;1.40;;;14.30;99.90;;;;;;5016365;28;20283;-53
2022/07/27 03:57:34;;;;;;;2.87;1.30;;;14.30;99.90;;;;;;5025105;28;20226;-54
2022/07/27 04:00:01;;;;;;;2.03;1.40;;;14.30;99.90;;;;;;5016007;28;20204;-54
2022/07/27 04:02:28;;;;;;;4.10;1.90;;;14.30;99.90;;;;;;5014150;28;20982;-54
2022/07/27 04:04:56;;;;;;;3.83;1.77;;;14.50;99.90;;;;;;5016185;28;20706;-53
2022/07/27 04:07:23;;;;;;;5.17;1.53;;;14.50;99.90;;;;;;5014065;28;20203;-53
2022/07/27 04:09:53;;;;;;;3.60;1.70;;;14.60;99.90;;;;;;5017062;28;20212;-53
2022/07/27 04:12:20;;;;;;;3.57;1.80;;;14.50;99.90;;;;;;5016556;28;20202;-54
2022/07/27 04:14:50;;;;;;;2.47;1.47;;;14.60;99.90;;;;;;5013414;28;20216;-53
2022/07/27 04:17:16;;;;;;;3.07;1.47;;;14.50;99.90;;;;;;5011800;28;20761;-53
2022/07/27 04:20:04;;;;;;;2.13;1.47;;;14.60;99.90;;;;;;5020360;28;20213;-54
2022/07/27 04:22:31;;;;;;;4.23;1.60;;;14.60;99.90;;;;;;5017998;28;20273;-54
2022/07/27 04:24:58;;;;;;;2.27;1.43;;;14.60;99.90;;;;;;5027957;28;20208;-53
2022/07/27 04:27:25;;;;;;;5.33;1.83;;;14.60;99.90;;;;;;5015715;28;20658;-54
2022/07/27 04:29:52;;;;;;;2.73;1.97;;;14.60;99.90;;;;;;5013985;28;20253;-55
2022/07/27 04:32:19;;;;;;;2.30;2.00;;;14.60;99.90;;;;;;5016006;28;20762;-52
2022/07/27 04:34:46;;;;;;;3.80;1.77;;;14.50;99.90;;;;;;5018213;28;20751;-55
2022/07/27 04:37:13;;;;;;;3.13;1.50;;;14.40;99.90;;;;;;5018451;28;20379;-52
2022/07/27 04:39:41;;;;;;;4.83;1.70;;;14.40;99.90;;;;;;5017368;28;20205;-53
2022/07/27 04:42:08;;;;;;;3.67;2.00;;;14.40;99.90;;;;;;5015165;28;20258;-54
2022/07/27 04:44:35;;;;;;;4.80;2.47;;;14.40;99.90;;;;;;5017009;28;20276;-53
2022/07/27 04:47:02;;;;;;;3.77;1.80;;;14.60;99.90;;;;;;5019201;28;20214;-54
2022/07/27 04:49:29;;;;;;;4.37;1.83;;;14.40;99.90;;;;;;5017875;28;20219;-53
2022/07/27 04:51:56;;;;;;;3.53;2.07;;;14.40;99.90;;;;;;5002412;28;20658;-56
2022/07/27 04:54:23;;;;;;;5.63;2.20;;;14.30;99.90;;;;;;5020483;28;20704;-53
2022/07/27 04:56:50;;;;;;;2.17;1.80;;;14.20;99.90;;;;;;5013195;28;20228;-53
2022/07/27 04:59:17;;;;;;;4.80;2.23;;;14.00;99.90;;;;;;5014230;28;20215;-53
2022/07/27 05:01:44;;;;;;;5.07;2.47;;;14.10;99.90;;;;;;5031855;28;20686;-54
2022/07/27 05:04:14;;;;;;;4.70;2.13;;;14.10;99.90;;;;;;5017145;28;20618;-53
2022/07/27 05:06:44;;;;;;;3.17;2.30;;;14.20;99.90;;;;;;5015182;28;20210;-53
2022/07/27 05:09:11;;;;;;;5.37;2.20;;;14.20;99.90;;;;;;5023741;28;20204;-54
2022/07/27 05:11:45;;;;;;;4.47;2.40;;;14.30;99.90;;;;;;5015200;28;20265;-53
2022/07/27 05:14:18;;;;;;;4.07;2.10;;;14.50;99.90;;;;;;5007485;28;20213;-54
2022/07/27 05:16:48;;;;;;;4.07;2.30;;;14.50;99.90;;;;;;5013378;28;20219;-53
2022/07/27 05:19:15;;;;;;;5.23;2.23;;;14.60;99.90;;;;;;5005645;28;20203;-54
2022/07/27 05:21:42;;;;;;;5.50;2.33;;;14.50;99.90;;;;;;5017728;28;20610;-55
2022/07/27 05:24:09;;;;;;;3.80;2.10;;;14.60;99.90;;;;;;5014847;28;20726;-54
2022/07/27 05:26:37;;;;;;;3.63;2.10;;;14.70;99.90;;;;;;5015071;28;20219;-54
2022/07/27 05:29:04;;;;;;;2.47;1.63;;;14.80;99.90;;;;;;5011624;28;20235;-53
2022/07/27 05:31:34;;;;;;;3.20;2.00;;;14.90;99.90;;;;;;5013829;28;20206;-53
2022/07/27 05:34:01;;;;;;;5.70;2.23;;;15.10;99.90;;;;;;5010944;28;20203;-52
2022/07/27 05:36:30;;;;;;;2.97;1.90;;;15.20;99.90;;;;;;5013961;28;20225;-54
2022/07/27 05:38:58;;;;;;;3.10;2.10;;;15.50;99.90;;;;;;5011937;28;20237;-53
2022/07/27 05:41:25;;;;;;;8.10;2.40;;;15.70;99.90;;;;;;5018281;28;20580;-53
2022/07/27 05:43:53;;;;;;;3.67;2.00;;;15.70;99.90;;;;;;5013752;28;20271;-53
2022/07/27 05:46:21;;;;;;;6.03;2.50;;;16.00;99.90;;;;;;5011004;28;20412;-53
2022/07/27 05:48:48;;;;;;;6.40;2.03;;;16.10;99.90;;;;;;5013105;28;20211;-53
2022/07/27 05:51:16;;;;;;;4.30;1.77;;;16.20;99.90;;;;;;5013727;28;20303;-53
2022/07/27 05:53:46;;;;;;;4.87;1.20;;;16.40;99.90;;;;;;5013400;28;20213;-52
2022/07/27 05:56:13;;;;;;;7.50;1.17;;;16.40;99.90;;;;;;5007710;28;20322;-53
2022/07/27 05:58:40;;;;;;;3.17;0.93;;;16.60;99.90;;;;;;4645847;28;10000670;-54
2022/07/27 06:01:07;;;;;;;4.03;1.30;;;16.60;99.90;;;;;;4998738;28;20224;-54
2022/07/27 06:03:37;;;;;;;3.60;0.90;;;16.70;99.90;;;;;;4992873;28;20208;-53
2022/07/27 06:08:49;;;;;;;1.87;0.80;;;16.90;99.90;;;;;;5004020;28;20546;-54
2022/07/27 06:11:16;;;;;;;3.07;0.83;;;16.80;99.90;;;;;;5009751;28;20212;-55
2022/07/27 06:13:43;;;;;;;1.87;0.70;;;16.60;99.90;;;;;;5008347;28;21057;-54
2022/07/27 06:16:10;;;;;;;10.27;1.00;;;16.60;99.90;;;;;;5009481;28;20252;-54
2022/07/27 06:18:37;;;;;;;3.20;1.10;;;16.70;99.90;;;;;;5007035;28;20200;-54
2022/07/27 06:21:05;;;;;;;2.10;0.70;;;16.80;99.90;;;;;;5008385;28;20220;-53
2022/07/27 06:23:32;;;;;;;4.43;1.70;;;16.90;99.90;;;;;;5012459;28;20252;-53
2022/07/27 06:25:59;;;;;;;3.07;1.00;;;17.00;99.90;;;;;;5009571;28;20211;-52
2022/07/27 06:28:26;;;;;;;2.77;0.90;;;16.90;99.90;;;;;;5006344;28;20207;-53
2022/07/27 06:30:53;;;;;;;1.97;1.17;;;17.10;99.90;;;;;;4986907;28;20224;-53
2022/07/27 06:33:26;;;;;;;4.23;0.87;;;17.00;99.90;;;;;;5008826;28;20236;-55
2022/07/27 06:35:59;;;;;;;2.10;0.73;;;17.10;99.90;;;;;;5008072;28;20219;-54
2022/07/27 06:38:27;;;;;;;3.60;1.03;;;17.20;99.90;;;;;;5005701;28;20212;-54
2022/07/27 06:40:55;;;;;;;2.40;1.07;;;17.30;99.90;;;;;;5001776;28;20204;-52
2022/07/27 06:43:25;;;;;;;2.10;0.97;;;17.30;99.90;;;;;;5009675;28;20211;-55
2022/07/27 06:45:53;;;;;;;5.47;1.53;;;17.40;99.90;;;;;;5003241;28;20229;-54
2022/07/27 06:48:24;;;;;;;6.67;1.77;;;17.50;99.90;;;;;;5004016;28;20236;-53
2022/07/27 06:50:52;;;;;;;2.03;1.10;;;17.60;99.90;;;;;;5010027;28;20205;-55
2022/07/27 06:53:20;;;;;;;2.87;1.00;;;17.80;99.90;;;;;;5009048;28;20201;-53
2022/07/27 06:55:48;;;;;;;3.50;0.87;;;17.80;99.90;;;;;;5010081;28;20228;-54
2022/07/27 06:58:15;;;;;;;5.43;0.80;;;17.80;99.90;;;;;;5007857;28;20283;-53
2022/07/27 07:00:46;;;;;;;4.43;1.10;;;17.50;99.90;;;;;;5003754;28;20813;-53
2022/07/27 07:03:13;;;;;;;1.87;0.60;;;17.60;99.90;;;;;;5008520;28;20201;-55
2022/07/27 07:05:46;;;;;;;3.53;0.53;;;18.00;99.90;;;;;;5006331;28;20227;-55
2022/07/27 07:08:14;;;;;;;1.97;0.70;;;18.50;99.90;;;;;;5003489;28;20676;-54
2022/07/27 07:10:44;;;;;;;1.90;0.77;;;18.60;99.90;;;;;;5005784;28;20205;-53
2022/07/27 07:13:14;;;;;;;1.70;0.80;;;18.90;99.90;;;;;;5019280;28;20292;-53
2022/07/27 07:15:42;;;;;;;1.40;0.73;;;18.70;99.90;;;;;;5006202;28;20303;-53
2022/07/27 07:18:11;;;;;;;2.07;1.00;;;18.20;99.90;;;;;;5006264;28;20699;-53
2022/07/27 07:20:38;;;;;;;4.03;1.30;;;18.00;99.90;;;;;;5007567;28;20201;-53
2022/07/27 07:23:06;;;;;;;2.93;0.93;;;17.70;99.90;;;;;;5010027;28;20204;-52
2022/07/27 07:25:34;;;;;;;2.47;0.97;;;18.10;99.90;;;;;;5010313;28;20205;-53
2022/07/27 07:28:01;;;;;;;3.03;1.40;;;18.00;99.90;;;;;;5005751;28;20581;-54
2022/07/27 07:30:28;;;;;;;3.17;1.37;;;17.60;99.90;;;;;;5006430;28;20228;-53
2022/07/27 07:32:56;;;;;;;10.87;1.50;;;17.40;99.90;;;;;;5008270;28;20208;-54
2022/07/27 07:35:23;;;;;;;1.37;0.80;;;17.40;99.90;;;;;;5011506;28;20234;-52
2022/07/27 07:37:51;;;;;;;4.00;0.77;;;17.40;99.90;;;;;;5006881;28;20268;-53
2022/07/27 07:40:18;;;;;;;1.73;0.80;;;17.20;99.90;;;;;;5004892;28;20212;-55
2022/07/27 07:43:10;;;;;;;3.93;0.90;;;17.20;99.90;;;;;;5012077;28;20863;-54
2022/07/27 07:45:41;;;;;;;3.97;1.00;;;17.10;99.90;;;;;;5018998;28;20233;-53
2022/07/27 07:48:18;;;;;;;1.83;0.70;;;17.20;99.90;;;;;;5011860;28;20319;-54
2022/07/27 07:50:45;;;;;;;2.10;0.83;;;17.30;99.90;;;;;;5000963;28;20209;-53
2022/07/27 07:53:21;;;;;;;2.43;0.80;;;17.50;99.90;;;;;;5011979;28;20773;-54
2022/07/27 07:55:49;;;;;;;3.27;0.80;;;18.10;99.90;;;;;;5043151;28;20688;-53
2022/07/27 07:58:17;;;;;;;9.80;1.10;;;18.90;99.90;;;;;;5010333;28;20299;-53
2022/07/27 08:00:44;;;;;;;5.20;1.23;;;19.30;99.90;;;;;;5013307;28;20204;-54
2022/07/27 08:03:12;;;;;;;2.83;1.53;;;19.40;99.90;;;;;;5013257;28;20621;-56
2022/07/27 08:05:39;;;;;;;3.40;0.67;;;19.80;99.90;;;;;;5009512;28;20308;-53
2022/07/27 08:08:06;;;;;;;4.57;0.80;;;19.80;99.90;;;;;;5014594;28;20215;-52
2022/07/27 08:10:33;;;;;;;3.73;0.47;;;20.10;99.90;;;;;;5009628;28;20209;-53
2022/07/27 08:13:01;;;;;;;2.03;0.73;;;20.50;99.90;;;;;;5008973;28;20213;-54
2022/07/27 08:15:29;;;;;;;1.57;0.60;;;19.80;99.90;;;;;;5008939;28;20872;-53
2022/07/27 08:18:03;;;;;;;3.40;0.77;;;20.10;99.90;;;;;;5023949;28;20220;-53
2022/07/27 08:20:30;;;;;;;1.30;0.70;;;19.90;99.90;;;;;;5009967;28;20263;-52
2022/07/27 08:22:57;;;;;;;2.97;0.80;;;20.10;99.90;;;;;;5008843;28;20205;-54
2022/07/27 08:25:25;;;;;;;5.23;0.63;;;20.00;99.90;;;;;;5016500;28;20225;-53
2022/07/27 08:27:52;;;;;;;2.33;0.60;;;19.80;99.90;;;;;;5008355;28;20208;-53
2022/07/27 08:30:22;;;;;;;1.73;0.60;;;20.20;99.90;;;;;;5013154;28;20251;-54
2022/07/27 08:33:00;;;;;;;4.27;0.70;;;20.40;99.90;;;;;;5015361;28;20207;-54
2022/07/27 08:35:28;;;;;;;2.43;0.90;;;20.40;99.90;;;;;;5016099;28;20212;-54
2022/07/27 08:37:56;;;;;;;1.90;0.83;;;20.10;99.90;;;;;;5006985;28;20221;-54
2022/07/27 08:40:24;;;;;;;2.30;0.53;;;20.60;99.90;;;;;;5007800;28;20495;-55
2022/07/27 08:43:07;;;;;;;1.60;0.60;;;20.40;99.90;;;;;;5020503;28;20206;-53
2022/07/27 08:45:36;;;;;;;1.90;0.50;;;19.80;99.90;;;;;;5007761;28;20295;-53
2022/07/27 08:48:03;;;;;;;2.17;0.60;;;19.90;99.90;;;;;;5006221;28;20214;-53
2022/07/27 08:50:33;;;;;;;4.17;0.90;;;20.10;99.90;;;;;;5009446;28;20239;-54
2022/07/27 08:53:08;;;;;;;4.73;0.97;;;20.10;99.90;;;;;;5016705;28;20219;-54
2022/07/27 08:55:38;;;;;;;2.57;0.70;;;20.70;99.90;;;;;;5014803;28;20281;-53
2022/07/27 08:58:06;;;;;;;2.93;0.87;;;20.30;99.90;;;;;;5011528;28;20235;-54
2022/07/27 09:00:35;;;;;;;4.43;0.67;;;20.60;99.90;;;;;;5017558;28;20628;-56
2022/07/27 09:03:02;;;;;;;2.90;0.60;;;20.30;99.90;;;;;;5019645;28;20203;-54
2022/07/27 09:05:30;;;;;;;4.50;0.70;;;20.00;99.90;;;;;;5015293;28;20205;-54
2022/07/27 09:08:16;;;;;;;1.80;0.80;;;19.80;99.90;;;;;;5012289;28;20208;-54
2022/07/27 09:10:44;;;;;;;2.53;0.97;;;20.60;99.90;;;;;;5015474;28;20705;-54
2022/07/27 09:13:26;;;;;;;1.10;0.50;;;20.90;99.90;;;;;;5012107;28;20211;-52
2022/07/27 09:16:05;;;;;;;2.80;0.83;;;21.60;99.90;;;;;;5016564;28;20456;-55
2022/07/27 09:19:01;;;;;;;2.33;0.70;;;21.90;99.90;;;;;;5012090;28;20483;-53
2022/07/27 09:21:28;;;;;;;3.27;1.47;;;22.70;99.90;;;;;;5010006;28;20208;-54
2022/07/27 09:24:06;;;;;;;2.77;0.57;;;23.30;99.90;;;;;;5013406;28;20759;-54
2022/07/27 09:27:01;;;;;;;2.13;0.50;;;24.30;99.90;;;;;;5016762;28;20214;-55
2022/07/27 09:29:33;;;;;;;3.50;0.80;;;24.80;99.90;;;;;;5013101;28;20203;-56
2022/07/27 09:32:16;;;;;;;2.57;0.83;;;23.60;99.90;;;;;;5015364;28;20201;-54
2022/07/27 09:34:43;;;;;;;0.97;0.60;;;22.30;99.90;;;;;;5022700;28;20206;-54
2022/07/27 09:37:11;;;;;;;2.47;0.90;;;21.60;99.90;;;;;;5015417;28;20294;-53
2022/07/27 09:39:38;;;;;;;2.43;0.80;;;21.50;99.90;;;;;;5012938;28;20566;-54
2022/07/27 09:42:07;;;;;;;4.37;0.67;;;21.20;99.90;;;;;;5013863;28;20200;-55
2022/07/27 09:44:45;;;;;;;5.80;0.90;;;21.10;99.90;;;;;;5015616;28;20679;-55
2022/07/27 09:47:25;;;;;;;2.63;0.70;;;20.70;99.90;;;;;;5011147;28;20240;-56
2022/07/27 09:50:13;;;;;;;4.03;1.03;;;20.30;99.90;;;;;;5022523;28;20208;-55
2022/07/27 09:52:40;;;;;;;2.67;0.70;;;20.10;99.90;;;;;;5015149;28;20270;-55
2022/07/27 09:55:07;;;;;;;3.80;0.97;;;19.70;99.90;;;;;;5011376;28;20356;-56
2022/07/27 09:57:56;;;;;;;9.60;1.30;;;19.80;99.90;;;;;;5014733;28;20232;-57
2022/07/27 10:00:27;;;;;;;5.97;1.03;;;20.00;99.90;;;;;;5009376;28;20210;-56
2022/07/27 10:02:55;;;;;;;3.07;0.90;;;19.80;99.90;;;;;;5011450;28;20367;-54
2022/07/27 10:05:22;;;;;;;0.90;0.80;;;19.90;99.90;;;;;;5013764;28;20220;-54
2022/07/27 10:07:51;;;;;;;3.00;0.67;;;19.80;99.90;;;;;;5013026;28;20205;-55
2022/07/27 10:10:20;;;;;;;5.20;0.90;;;19.60;99.90;;;;;;5016612;28;20209;-53
2022/07/27 10:12:47;;;;;;;2.53;0.83;;;19.70;99.90;;;;;;5011392;28;21056;-53
2022/07/27 10:15:21;;;;;;;2.00;0.70;;;19.70;99.90;;;;;;5011131;28;20304;-54
2022/07/27 10:17:59;;;;;;;1.53;0.87;;;19.90;99.90;;;;;;5010804;28;20225;-54
2022/07/27 10:20:28;;;;;;;2.67;0.70;;;19.90;99.90;;;;;;5011534;28;20207;-54
2022/07/27 10:23:00;;;;;;;3.90;0.80;;;20.10;99.90;;;;;;4994491;28;20260;-56
2022/07/27 10:25:29;;;;;;;4.03;0.80;;;20.30;99.90;;;;;;5013997;28;20254;-57
2022/07/27 10:28:13;;;;;;;2.27;0.87;;;20.20;99.90;;;;;;5014000;28;20579;-54
2022/07/27 10:30:40;;;;;;;1.07;0.80;;;20.60;99.90;;;;;;5011692;28;20629;-54
2022/07/27 10:33:15;;;;;;;3.13;0.83;;;20.80;99.90;;;;;;5010667;28;20209;-55
2022/07/27 10:35:42;;;;;;;3.37;0.63;;;20.90;99.90;;;;;;5011929;28;20200;-54
2022/07/27 10:38:14;;;;;;;2.43;0.83;;;21.00;99.90;;;;;;5040896;28;20221;-53
2022/07/27 10:40:42;;;;;;;2.20;0.70;;;20.80;99.90;;;;;;5013301;28;20203;-55
2022/07/27 10:43:20;;;;;;;3.27;0.87;;;20.50;99.90;;;;;;5013968;28;20556;-55
2022/07/27 10:45:49;;;;;;;3.87;0.77;;;19.90;99.90;;;;;;5010236;28;20778;-54
2022/07/27 10:48:40;;;;;;;1.27;0.50;;;20.10;99.90;;;;;;5013617;28;20197;-54
2022/07/27 10:51:15;;;;;;;1.83;0.60;;;21.40;99.90;;;;;;5012583;28;20657;-55
2022/07/27 10:53:44;;;;;;;0.60;0.40;;;21.10;99.90;;;;;;5014083;28;20238;-54
2022/07/27 10:56:45;;;;;;;1.27;0.60;;;21.60;99.90;;;;;;5011279;28;20233;-54
2022/07/27 10:59:12;;;;;;;1.97;0.50;;;21.40;99.90;;;;;;5008471;28;20217;-54
2022/07/27 11:02:10;;;;;;;1.90;0.40;;;22.00;99.90;;;;;;5010120;28;20214;-55
2022/07/27 11:04:49;;;;;;;1.00;0.50;;;22.60;99.90;;;;;;5026434;28;20267;-54
2022/07/27 11:07:21;;;;;;;2.77;0.70;;;22.40;99.90;;;;;;5013413;28;20232;-55
2022/07/27 11:09:59;;;;;;;1.40;0.60;;;22.70;99.90;;;;;;5010823;28;20243;-54
2022/07/27 11:12:30;;;;;;;2.90;0.40;;;23.80;99.90;;;;;;5010522;28;20246;-54
2022/07/27 11:14:58;;;;;;;2.33;0.60;;;23.80;99.90;;;;;;5014437;28;20288;-56
2022/07/27 11:17:27;;;;;;;1.00;0.50;;;23.50;99.90;;;;;;5015886;28;20217;-55
2022/07/27 11:20:14;;;;;;;1.13;0.60;;;24.70;99.90;;;;;;5013007;28;20222;-56
2022/07/27 11:22:41;;;;;;;1.97;0.60;;;25.30;99.90;;;;;;5019305;28;20255;-55
2022/07/27 11:25:28;;;;;;;1.40;0.60;;;24.30;99.90;;;;;;5018340;28;20200;-56
2022/07/27 11:27:55;;;;;;;2.03;0.60;;;25.70;99.90;;;;;;5014671;28;20609;-56
2022/07/27 11:30:27;;;;;;;2.47;0.60;;;26.90;99.90;;;;;;5013518;28;20208;-57
2022/07/27 11:32:55;;;;;;;1.53;0.67;;;26.20;99.90;;;;;;5034008;28;20229;-56
2022/07/27 11:35:22;;;;;;;2.43;0.57;;;25.20;99.90;;;;;;5013222;28;20205;-57
2022/07/27 11:38:02;;;;;;;1.23;0.60;;;26.30;99.90;;;;;;5013381;28;20224;-56
2022/07/27 11:40:45;;;;;;;1.20;0.50;;;25.60;99.90;;;;;;5006709;28;20206;-54
2022/07/27 11:43:40;;;;;;;3.37;0.90;;;26.10;99.90;;;;;;5013347;28;20211;-55
2022/07/27 11:46:10;;;;;;;2.10;0.70;;;27.40;99.90;;;;;;5010264;28;20300;-56
2022/07/27 11:48:45;;;;;;;1.53;0.60;;;27.20;99.90;;;;;;5010806;28;20203;-55
2022/07/27 11:51:33;;;;;;;2.47;0.50;;;26.40;99.90;;;;;;5015239;28;22316;-57
2022/07/27 11:54:04;;;;;;;1.30;0.73;;;25.60;99.90;;;;;;5009648;28;20236;-56
2022/07/27 11:56:33;;;;;;;1.88;1.20;;;27.00;99.90;;;;;;5022547;28;20681;-55
2022/07/27 11:59:12;;;;;;;1.77;0.70;;;26.10;99.90;;;;;;5005161;28;20221;-56
2022/07/27 12:01:45;;;;;;;1.47;0.53;;;27.60;99.90;;;;;;5012016;28;20212;-55
2022/07/27 12:04:23;;;;;;;1.65;0.70;;;26.70;99.90;;;;;;5011927;28;20324;-56
2022/07/27 12:07:03;;;;;;;0.98;0.60;;;26.10;99.90;;;;;;5009484;28;20202;-55
2022/07/27 12:09:34;;;;;;;2.75;0.70;;;24.30;99.90;;;;;;5022242;28;20232;-55
2022/07/27 12:12:08;;;;;;;3.43;0.70;;;23.90;99.90;;;;;;5014566;28;20201;-55
2022/07/27 12:14:41;;;;;;;0.83;0.50;;;25.70;99.90;;;;;;5008599;28;20720;-54
2022/07/27 12:17:32;;;;;;;2.60;0.80;;;24.90;99.90;;;;;;5012465;28;20559;-55
2022/07/27 12:20:10;;;;;;;2.77;1.00;;;23.60;99.90;;;;;;5012872;28;20205;-55
2022/07/27 12:22:52;;;;;;;1.37;0.70;;;22.90;99.90;;;;;;5010998;28;20296;-56
2022/07/27 12:25:20;;;;;;;2.10;0.77;;;22.40;99.90;;;;;;5010121;28;20231;-54
2022/07/27 12:28:00;;;;;;;5.17;1.17;;;22.40;99.90;;;;;;5005806;28;20204;-54
2022/07/27 12:30:33;;;;;;;4.07;0.70;;;22.20;99.90;;;;;;5023114;28;20208;-55
2022/07/27 12:33:05;;;;;;;1.33;0.53;;;22.10;99.90;;;;;;5012235;28;20559;-54
2022/07/27 12:35:42;;;;;;;1.53;0.50;;;22.20;99.90;;;;;;5014246;28;22244;-56
2022/07/27 12:38:12;;;;;;;1.77;0.63;;;22.00;99.90;;;;;;5008619;28;20256;-55
2022/07/27 12:40:55;;;;;;;2.03;1.00;;;22.00;99.90;;;;;;5012987;28;20661;-53
2022/07/27 12:43:27;;;;;;;2.60;0.60;;;22.00;99.90;;;;;;5011612;28;20227;-54
2022/07/27 12:45:54;;;;;;;16.77;2.23;;;21.90;99.90;;;;;;5012093;28;20235;-57
2022/07/27 12:48:27;;;;;;;5.83;1.10;;;21.90;99.90;;;;;;5011678;28;20648;-55
2022/07/27 12:51:02;;;;;;;4.10;1.03;;;22.00;99.90;;;;;;5013830;28;20216;-55
2022/07/27 12:53:31;;;;;;;1.50;0.40;;;22.00;99.90;;;;;;5015424;28;20208;-55
2022/07/27 12:56:02;;;;;;;2.83;0.63;;;22.20;99.90;;;;;;5015232;28;20201;-55
2022/07/27 12:58:32;;;;;;;2.37;0.80;;;22.70;99.90;;;;;;5010912;28;20220;-56
2022/07/27 13:00:59;;;;;;;0.93;0.60;;;23.10;99.90;;;;;;5013745;28;20627;-55
2022/07/27 13:03:27;;;;;;;2.37;0.60;;;22.80;99.90;;;;;;5027626;28;20226;-55
2022/07/27 13:05:55;;;;;;;2.93;0.80;;;22.20;99.90;;;;;;5008511;28;20212;-55